Time;durP1;ratioP1;P1;durP2;ratioP2;P2;SDS_P1;SDS_P2;PMS_P1;PMS_P2;Temp;Humidity;BMP_temperature;BMP_pressure;BME280_temperature;BME280_humidity;BME280_pressure;Samples;Min_cycle;Max_cycle;Signal;HPM_P1;HPM_P2
2024/01/15 00:01:56;;;;;;;;;;;1.60;99.90;;;;;;5017982;28;21046;-69
2024/01/15 00:04:22;;;;;;;;;;;1.60;99.90;;;;;;4990162;28;19924;-70
2024/01/15 00:06:49;;;;;;;;;;;1.60;99.90;;;;;;4994708;28;19935;-70
2024/01/15 00:09:15;;;;;;;;;;;1.70;99.90;;;;;;5005936;28;20576;-71
2024/01/15 00:11:42;;;;;;;;;;;1.70;99.90;;;;;;5015880;28;19931;-70
2024/01/15 00:14:08;;;;;;;;;;;1.70;99.90;;;;;;4993578;28;20366;-69
2024/01/15 00:16:34;;;;;;;;;;;1.70;99.90;;;;;;5032751;28;19999;-70
2024/01/15 00:19:00;;;;;;;;;;;1.70;99.90;;;;;;4992302;28;20438;-71
2024/01/15 00:21:27;;;;;;;;;;;1.80;99.90;;;;;;5035566;28;19925;-70
2024/01/15 00:23:53;;;;;;;;;;;1.90;99.90;;;;;;4997019;28;19924;-70
2024/01/15 00:26:19;;;;;;;;;;;1.80;99.90;;;;;;5016753;28;19928;-70
2024/01/15 00:28:45;;;;;;;;;;;1.80;99.90;;;;;;5020250;28;19929;-71
2024/01/15 00:31:10;;;;;;;;;;;1.80;99.90;;;;;;4969411;28;20468;-71
2024/01/15 00:33:36;;;;;;;;;;;1.90;99.90;;;;;;4997883;28;19929;-71
2024/01/15 00:36:05;;;;;;;;;;;1.90;99.90;;;;;;4966585;28;19932;-72
2024/01/15 00:38:31;;;;;;;;;;;2.00;99.90;;;;;;4981894;28;20408;-70
2024/01/15 00:40:57;;;;;;;;;;;2.10;99.90;;;;;;4975138;28;19924;-70
2024/01/15 00:43:23;;;;;;;;;;;2.20;99.90;;;;;;4998363;28;20179;-71
2024/01/15 00:45:49;;;;;;;;;;;2.30;99.90;;;;;;4987464;28;19934;-70
2024/01/15 00:48:15;;;;;;;;;;;2.30;99.90;;;;;;5017098;28;20014;-71
2024/01/15 00:50:41;;;;;;;;;;;2.40;99.90;;;;;;4991642;28;20416;-71
2024/01/15 00:53:07;;;;;;;;;;;2.50;99.90;;;;;;5022123;28;19932;-71
2024/01/15 00:55:33;;;;;;;;;;;2.50;99.90;;;;;;4998829;28;21028;-72
2024/01/15 00:57:58;;;;;;;;;;;2.50;99.90;;;;;;5022609;28;19925;-72
2024/01/15 01:00:24;;;;;;;;;;;2.40;99.90;;;;;;4992216;28;20305;-73
2024/01/15 01:02:50;;;;;;;;;;;2.40;99.90;;;;;;5027343;28;20528;-74
2024/01/15 01:05:16;;;;;;;;;;;2.30;99.90;;;;;;5004920;28;19924;-73
2024/01/15 01:07:42;;;;;;;;;;;2.30;99.90;;;;;;5021180;28;19924;-74
2024/01/15 01:10:08;;;;;;;;;;;2.40;99.90;;;;;;5002299;28;20481;-74
2024/01/15 01:12:34;;;;;;;;;;;2.40;99.90;;;;;;5020350;28;19924;-74
2024/01/15 01:15:00;;;;;;;;;;;2.50;99.90;;;;;;4985420;28;19939;-74
2024/01/15 01:17:26;;;;;;;;;;;2.50;99.90;;;;;;5006555;28;20006;-74
2024/01/15 01:19:52;;;;;;;;;;;2.50;99.90;;;;;;4995534;28;19931;-74
2024/01/15 01:22:18;;;;;;;;;;;2.50;99.90;;;;;;5027965;28;19924;-75
2024/01/15 01:24:43;;;;;;;;;;;2.40;99.90;;;;;;5001073;28;19924;-75
2024/01/15 01:27:09;;;;;;;;;;;2.40;99.90;;;;;;5021128;28;19924;-75
2024/01/15 01:29:35;;;;;;;;;;;2.30;99.90;;;;;;4998056;28;19928;-75
2024/01/15 01:32:01;;;;;;;;;;;2.20;99.90;;;;;;5023764;28;19936;-75
2024/01/15 01:34:27;;;;;;;;;;;2.20;99.90;;;;;;4995932;28;19924;-74
2024/01/15 01:36:53;;;;;;;;;;;2.10;99.90;;;;;;5023379;28;19935;-76
2024/01/15 01:39:19;;;;;;;;;;;2.20;99.90;;;;;;4994196;28;19928;-75
2024/01/15 01:41:45;;;;;;;;;;;2.20;99.90;;;;;;4994463;28;19934;-77
2024/01/15 01:44:11;;;;;;;;;;;2.20;99.90;;;;;;5016314;28;20762;-76
2024/01/15 01:46:40;;;;;;;;;;;2.20;99.90;;;;;;5002672;28;19935;-76
2024/01/15 01:49:06;;;;;;;;;;;2.20;99.90;;;;;;4998044;28;19929;-76
2024/01/15 01:51:34;;;;;;;;;;;2.20;99.90;;;;;;5033276;28;20808;-76
2024/01/15 01:54:00;;;;;;;;;;;2.10;99.90;;;;;;4994157;28;19928;-76
2024/01/15 01:56:26;;;;;;;;;;;2.20;99.90;;;;;;5028888;28;20548;-76
2024/01/15 01:58:52;;;;;;;;;;;2.20;99.90;;;;;;5000633;28;21369;-75
2024/01/15 02:01:18;;;;;;;;;;;2.20;99.90;;;;;;5003997;28;20023;-76
2024/01/15 02:03:44;;;;;;;;;;;2.20;99.90;;;;;;5021002;28;19959;-76
2024/01/15 02:06:10;;;;;;;;;;;2.10;99.90;;;;;;5008860;28;19932;-76
2024/01/15 02:08:36;;;;;;;;;;;2.00;99.90;;;;;;5019131;28;20888;-76
2024/01/15 02:11:02;;;;;;;;;;;1.90;99.90;;;;;;4994415;28;19946;-76
2024/01/15 02:13:28;;;;;;;;;;;1.80;99.90;;;;;;5021834;28;19986;-76
2024/01/15 02:15:54;;;;;;;;;;;1.70;99.90;;;;;;4996126;28;20433;-75
2024/01/15 02:18:20;;;;;;;;;;;1.60;99.90;;;;;;5019987;28;20033;-75
2024/01/15 02:20:46;;;;;;;;;;;1.60;99.90;;;;;;5011574;28;19935;-75
2024/01/15 02:23:13;;;;;;;;;;;1.50;99.90;;;;;;5020553;28;19924;-75
2024/01/15 02:25:39;;;;;;;;;;;1.50;99.90;;;;;;5012457;28;19931;-74
2024/01/15 02:28:07;;;;;;;;;;;1.50;99.90;;;;;;5019165;28;19935;-74
2024/01/15 02:30:36;;;;;;;;;;;1.50;99.90;;;;;;4985518;28;19928;-75
2024/01/15 02:33:02;;;;;;;;;;;1.50;99.90;;;;;;5020736;28;19935;-75
2024/01/15 02:35:28;;;;;;;;;;;1.50;99.90;;;;;;4996963;28;19932;-75
2024/01/15 02:37:54;;;;;;;;;;;1.60;99.90;;;;;;5006405;28;19935;-76
2024/01/15 02:40:20;;;;;;;;;;;1.70;99.90;;;;;;4994965;28;20234;-76
2024/01/15 02:42:46;;;;;;;;;;;1.70;99.90;;;;;;5027942;28;20978;-75
2024/01/15 02:45:12;;;;;;;;;;;1.70;99.90;;;;;;4995293;28;20433;-76
2024/01/15 02:47:38;;;;;;;;;;;1.70;99.90;;;;;;5018971;28;19924;-76
2024/01/15 02:50:04;;;;;;;;;;;1.80;99.90;;;;;;4991839;28;19924;-75
2024/01/15 02:52:30;;;;;;;;;;;1.80;99.90;;;;;;5026814;28;19931;-76
2024/01/15 02:54:55;;;;;;;;;;;1.90;99.90;;;;;;4996385;28;19932;-76
2024/01/15 02:57:21;;;;;;;;;;;1.80;99.90;;;;;;5021549;28;20569;-75
2024/01/15 02:59:47;;;;;;;;;;;1.80;99.90;;;;;;5001804;28;19924;-75
2024/01/15 03:02:13;;;;;;;;;;;1.90;99.90;;;;;;5031175;28;20363;-75
2024/01/15 03:04:45;;;;;;;;;;;1.80;99.90;;;;;;4997027;28;19924;-75
2024/01/15 03:07:11;;;;;;;;;;;1.90;99.90;;;;;;5022904;28;19924;-75
2024/01/15 03:09:37;;;;;;;;;;;1.90;99.90;;;;;;4993745;28;19957;-75
2024/01/15 03:12:03;;;;;;;;;;;1.90;99.90;;;;;;5032658;28;19924;-75
2024/01/15 03:14:29;;;;;;;;;;;1.90;99.90;;;;;;4997294;28;19928;-75
2024/01/15 03:16:55;;;;;;;;;;;1.90;99.90;;;;;;5005924;28;19939;-75
2024/01/15 03:19:21;;;;;;;;;;;1.90;99.90;;;;;;4993453;28;19925;-75
2024/01/15 03:21:47;;;;;;;;;;;1.90;99.90;;;;;;5025268;28;19929;-76
2024/01/15 03:24:13;;;;;;;;;;;1.90;99.90;;;;;;5016709;28;20484;-75
2024/01/15 03:26:39;;;;;;;;;;;1.80;99.90;;;;;;5020725;28;19928;-76
2024/01/15 03:29:05;;;;;;;;;;;1.80;99.90;;;;;;4995729;28;19936;-77
2024/01/15 03:31:30;;;;;;;;;;;1.80;99.90;;;;;;5035011;28;20278;-76
2024/01/15 03:33:56;;;;;;;;;;;1.90;99.90;;;;;;4993069;28;19936;-77
2024/01/15 03:36:22;;;;;;;;;;;1.80;99.90;;;;;;5024310;28;19928;-77
2024/01/15 03:38:48;;;;;;;;;;;1.80;99.90;;;;;;5018282;28;19924;-78
2024/01/15 03:41:14;;;;;;;;;;;1.90;99.90;;;;;;5010573;28;20544;-77
2024/01/15 03:43:40;;;;;;;;;;;2.00;99.90;;;;;;5024179;28;19999;-76
2024/01/15 03:46:06;;;;;;;;;;;2.00;99.90;;;;;;5011469;28;20270;-77
2024/01/15 03:48:32;;;;;;;;;;;2.10;99.90;;;;;;5028851;28;19936;-76
2024/01/15 03:50:58;;;;;;;;;;;2.20;99.90;;;;;;5014651;28;19924;-76
2024/01/15 03:53:24;;;;;;;;;;;2.20;99.90;;;;;;5029282;28;19948;-77
2024/01/15 03:55:50;;;;;;;;;;;2.20;99.90;;;;;;5006001;28;19935;-75
2024/01/15 03:58:16;;;;;;;;;;;2.20;99.90;;;;;;5028192;28;19929;-76
2024/01/15 04:00:42;;;;;;;;;;;2.20;99.90;;;;;;5022270;28;20643;-76
2024/01/15 04:03:08;;;;;;;;;;;2.30;99.90;;;;;;5028580;28;19947;-77
2024/01/15 04:05:34;;;;;;;;;;;2.40;99.90;;;;;;4998728;28;20993;-76
2024/01/15 04:08:00;;;;;;;;;;;2.40;99.90;;;;;;5021775;28;19929;-76
2024/01/15 04:10:26;;;;;;;;;;;2.50;99.90;;;;;;5000854;28;20024;-76
2024/01/15 04:12:52;;;;;;;;;;;2.50;99.90;;;;;;5022382;28;20379;-76
2024/01/15 04:15:18;;;;;;;;;;;2.50;99.90;;;;;;4991953;28;20046;-75
2024/01/15 04:17:44;;;;;;;;;;;2.50;99.90;;;;;;5024923;28;20391;-76
2024/01/15 04:20:10;;;;;;;;;;;2.40;99.90;;;;;;5004346;28;19970;-77
2024/01/15 04:22:37;;;;;;;;;;;2.40;99.90;;;;;;5029922;28;19936;-76
2024/01/15 04:25:03;;;;;;;;;;;2.30;99.90;;;;;;5004969;28;19924;-77
2024/01/15 04:27:29;;;;;;;;;;;2.20;99.90;;;;;;5033796;28;19924;-76
2024/01/15 04:29:55;;;;;;;;;;;2.20;99.90;;;;;;5008354;28;19930;-77
2024/01/15 04:32:21;;;;;;;;;;;2.20;99.90;;;;;;5025741;28;20409;-76
2024/01/15 04:34:47;;;;;;;;;;;2.20;99.90;;;;;;5007057;28;19928;-76
2024/01/15 04:37:15;;;;;;;;;;;2.30;99.90;;;;;;5041098;28;20118;-76
2024/01/15 04:39:41;;;;;;;;;;;2.20;99.90;;;;;;5007062;28;19928;-76
2024/01/15 04:42:07;;;;;;;;;;;2.10;99.90;;;;;;5015380;28;19928;-75
2024/01/15 04:44:33;;;;;;;;;;;2.00;99.90;;;;;;5002401;28;19928;-75
2024/01/15 04:46:59;;;;;;;;;;;2.00;99.90;;;;;;5023194;28;20006;-76
2024/01/15 04:49:29;;;;;;;;;;;2.00;99.90;;;;;;5003210;28;19972;-75
2024/01/15 04:51:55;;;;;;;;;;;2.00;99.90;;;;;;5029530;28;19935;-75
2024/01/15 04:54:21;;;;;;;;;;;1.90;99.90;;;;;;5001578;28;19932;-75
2024/01/15 04:56:47;;;;;;;;;;;1.90;99.90;;;;;;5026529;28;19932;-75
2024/01/15 04:59:14;;;;;;;;;;;1.80;99.90;;;;;;5004037;28;20479;-75
2024/01/15 05:01:40;;;;;;;;;;;1.80;99.90;;;;;;5027474;28;19924;-75
2024/01/15 05:04:06;;;;;;;;;;;1.80;99.90;;;;;;5001637;28;19958;-76
2024/01/15 05:06:32;;;;;;;;;;;1.80;99.90;;;;;;5017097;28;19951;-75
2024/01/15 05:08:58;;;;;;;;;;;1.70;99.90;;;;;;4997887;28;19924;-75
2024/01/15 05:11:23;;;;;;;;;;;1.70;99.90;;;;;;5040075;28;19924;-75
2024/01/15 05:13:49;;;;;;;;;;;1.70;99.90;;;;;;5018289;28;20899;-75
2024/01/15 05:16:15;;;;;;;;;;;1.60;99.90;;;;;;4972669;28;19929;-75
2024/01/15 05:18:43;;;;;;;;;;;1.60;99.90;;;;;;5009909;28;20902;-73
2024/01/15 05:21:09;;;;;;;;;;;1.60;99.90;;;;;;4954762;28;19935;-73
2024/01/15 05:23:35;;;;;;;;;;;1.70;99.90;;;;;;5007707;28;19928;-74
2024/01/15 05:26:01;;;;;;;;;;;1.70;99.90;;;;;;4960329;28;20458;-74
2024/01/15 05:28:27;;;;;;;;;;;1.60;99.90;;;;;;5028459;28;20071;-74
2024/01/15 05:30:53;;;;;;;;;;;1.70;99.90;;;;;;5015257;28;19924;-74
2024/01/15 05:33:19;;;;;;;;;;;1.70;99.90;;;;;;5027882;28;19924;-74
2024/01/15 05:35:45;;;;;;;;;;;1.80;99.90;;;;;;5000083;28;19928;-74
2024/01/15 05:38:11;;;;;;;;;;;1.80;99.90;;;;;;5027665;28;19925;-76
2024/01/15 05:40:36;;;;;;;;;;;1.80;99.90;;;;;;4998803;28;19930;-76
2024/01/15 05:43:03;;;;;;;;;;;1.80;99.90;;;;;;5026531;28;19925;-75
2024/01/15 05:45:30;;;;;;;;;;;1.70;99.90;;;;;;4998887;28;19935;-76
2024/01/15 05:47:56;;;;;;;;;;;1.60;99.90;;;;;;5011456;28;19925;-75
2024/01/15 05:50:22;;;;;;;;;;;1.50;99.90;;;;;;5019060;28;19924;-76
2024/01/15 05:52:48;;;;;;;;;;;1.40;99.90;;;;;;5032874;28;19935;-76
2024/01/15 05:55:14;;;;;;;;;;;1.40;99.90;;;;;;5005502;28;19928;-76
2024/01/15 05:57:40;;;;;;;;;;;1.30;99.90;;;;;;5032722;28;20004;-74
2024/01/15 06:00:06;;;;;;;;;;;1.30;99.90;;;;;;5014835;28;20991;-75
2024/01/15 06:02:32;;;;;;;;;;;1.30;99.90;;;;;;5038791;28;20399;-74
2024/01/15 06:04:58;;;;;;;;;;;1.20;99.90;;;;;;5007664;28;19924;-75
2024/01/15 06:07:24;;;;;;;;;;;1.20;99.90;;;;;;5022830;28;19931;-74
2024/01/15 06:09:50;;;;;;;;;;;1.10;99.90;;;;;;4995275;28;20272;-75
2024/01/15 06:12:16;;;;;;;;;;;1.10;99.90;;;;;;5021571;28;19935;-74
2024/01/15 06:14:42;;;;;;;;;;;1.20;99.90;;;;;;5005473;28;19947;-76
2024/01/15 06:17:08;;;;;;;;;;;1.20;99.90;;;;;;5026918;28;20605;-77
2024/01/15 06:19:34;;;;;;;;;;;1.20;99.90;;;;;;4993662;28;19935;-76
2024/01/15 06:22:00;;;;;;;;;;;1.30;99.90;;;;;;5023116;28;19925;-77
2024/01/15 06:24:26;;;;;;;;;;;1.30;99.90;;;;;;4989552;28;20937;-75
2024/01/15 06:26:52;;;;;;;;;;;1.30;99.90;;;;;;4995923;28;19924;-76
2024/01/15 06:29:18;;;;;;;;;;;1.30;99.90;;;;;;4996462;28;20750;-76
2024/01/15 06:31:44;;;;;;;;;;;1.30;99.90;;;;;;5019516;28;20567;-76
2024/01/15 06:34:10;;;;;;;;;;;1.30;99.90;;;;;;4976885;28;20015;-76
2024/01/15 06:36:35;;;;;;;;;;;1.20;99.90;;;;;;5013837;28;21857;-76
2024/01/15 06:39:02;;;;;;;;;;;1.20;99.90;;;;;;4996122;28;19928;-76
2024/01/15 06:41:28;;;;;;;;;;;1.20;99.90;;;;;;5024143;28;19924;-76
2024/01/15 06:43:55;;;;;;;;;;;1.20;99.90;;;;;;4979214;28;19929;-76
2024/01/15 06:46:21;;;;;;;;;;;1.30;99.90;;;;;;5016918;28;19928;-76
2024/01/15 06:48:47;;;;;;;;;;;1.30;99.90;;;;;;5020919;28;19935;-76
2024/01/15 06:51:13;;;;;;;;;;;1.40;99.90;;;;;;4993872;28;19936;-75
2024/01/15 06:53:39;;;;;;;;;;;1.40;99.90;;;;;;5024581;28;20526;-77
2024/01/15 06:56:05;;;;;;;;;;;1.30;99.90;;;;;;4978387;28;20062;-77
2024/01/15 06:58:31;;;;;;;;;;;1.30;99.90;;;;;;5024032;28;21113;-68
2024/01/15 07:00:57;;;;;;;;;;;1.20;99.90;;;;;;4995627;28;19928;-78
2024/01/15 07:03:23;;;;;;;;;;;1.20;99.90;;;;;;5022338;28;20601;-77
2024/01/15 07:05:49;;;;;;;;;;;1.20;99.90;;;;;;4980438;28;19924;-77
2024/01/15 07:08:15;;;;;;;;;;;1.10;99.90;;;;;;5022097;28;19928;-78
2024/01/15 07:10:41;;;;;;;;;;;1.20;99.90;;;;;;4994644;28;19928;-76
2024/01/15 07:13:07;;;;;;;;;;;1.10;99.90;;;;;;5024551;28;19928;-77
2024/01/15 07:15:33;;;;;;;;;;;1.10;99.90;;;;;;4967525;28;19924;-77
2024/01/15 07:17:59;;;;;;;;;;;1.10;99.90;;;;;;5004328;28;20019;-76
2024/01/15 07:20:25;;;;;;;;;;;1.10;99.90;;;;;;5000738;28;20473;-76
2024/01/15 07:22:51;;;;;;;;;;;1.10;99.90;;;;;;5026791;28;19951;-76
2024/01/15 07:25:16;;;;;;;;;;;1.10;99.90;;;;;;5001036;28;20418;-76
2024/01/15 07:27:44;;;;;;;;;;;1.10;99.90;;;;;;5043163;28;19924;-75
2024/01/15 07:30:11;;;;;;;;;;;1.00;99.90;;;;;;4988451;28;21018;-77
2024/01/15 07:32:37;;;;;;;;;;;1.00;99.90;;;;;;5018625;28;19929;-75
2024/01/15 07:35:03;;;;;;;;;;;1.00;99.90;;;;;;5005380;28;19931;-74
2024/01/15 07:37:29;;;;;;;;;;;1.00;99.90;;;;;;5029573;28;19959;-75
2024/01/15 07:39:55;;;;;;;;;;;1.00;99.90;;;;;;4999820;28;20540;-75
2024/01/15 07:42:21;;;;;;;;;;;1.00;99.90;;;;;;5027996;28;20621;-72
2024/01/15 07:44:47;;;;;;;;;;;1.00;99.90;;;;;;4990325;28;20736;-73
2024/01/15 07:47:13;;;;;;;;;;;1.00;99.90;;;;;;5011827;28;19931;-73
2024/01/15 07:49:39;;;;;;;;;;;1.00;99.90;;;;;;5010312;28;19924;-73
2024/01/15 07:52:05;;;;;;;;;;;1.10;99.90;;;;;;5031368;28;20091;-74
2024/01/15 07:54:31;;;;;;;;;;;1.10;99.90;;;;;;5003357;28;19932;-75
2024/01/15 07:57:02;;;;;;;;;;;1.20;99.90;;;;;;5039693;28;19939;-75
2024/01/15 07:59:28;;;;;;;;;;;1.20;99.90;;;;;;5007685;28;19928;-75
2024/01/15 08:01:54;;;;;;;;;;;1.20;99.90;;;;;;5041462;28;20207;-75
2024/01/15 08:04:20;;;;;;;;;;;1.20;99.90;;;;;;5003525;28;20440;-75
2024/01/15 08:06:46;;;;;;;;;;;1.30;99.90;;;;;;5019947;28;19931;-76
2024/01/15 08:09:15;;;;;;;;;;;1.30;99.90;;;;;;5001904;28;22701;-75
2024/01/15 08:11:41;;;;;;;;;;;1.30;99.90;;;;;;5028395;28;19925;-76
2024/01/15 08:14:08;;;;;;;;;;;1.30;99.90;;;;;;4984759;28;20040;-75
2024/01/15 08:16:34;;;;;;;;;;;1.40;99.90;;;;;;5022154;28;19928;-74
2024/01/15 08:19:00;;;;;;;;;;;1.40;99.90;;;;;;5002507;28;20019;-76
2024/01/15 08:21:29;;;;;;;;;;;1.40;99.90;;;;;;5033103;28;19931;-76
2024/01/15 08:24:02;;;;;;;;;;;1.40;99.90;;;;;;5002373;28;19924;-75
2024/01/15 08:26:28;;;;;;;;;;;1.40;99.90;;;;;;5043859;28;19924;-76
2024/01/15 08:28:54;;;;;;;;;;;1.40;99.90;;;;;;5002459;28;20974;-76
2024/01/15 08:31:20;;;;;;;;;;;1.40;99.90;;;;;;5031478;28;19951;-76
2024/01/15 08:33:46;;;;;;;;;;;1.40;99.90;;;;;;5030184;28;20653;-75
2024/01/15 08:36:12;;;;;;;;;;;1.40;99.90;;;;;;4981841;28;19935;-76
2024/01/15 08:38:38;;;;;;;;;;;1.40;99.90;;;;;;5051012;28;19931;-76
2024/01/15 08:41:04;;;;;;;;;;;1.40;99.90;;;;;;5003892;28;19931;-76
2024/01/15 08:43:33;;;;;;;;;;;1.40;99.90;;;;;;5031441;28;19932;-75
2024/01/15 08:45:59;;;;;;;;;;;1.40;99.90;;;;;;5021575;28;19966;-76
2024/01/15 08:48:27;;;;;;;;;;;1.40;99.90;;;;;;5028930;28;19931;-76
2024/01/15 08:50:53;;;;;;;;;;;1.40;99.90;;;;;;4986676;28;19924;-75
2024/01/15 08:53:19;;;;;;;;;;;1.40;99.90;;;;;;5033087;28;19925;-75
2024/01/15 08:55:45;;;;;;;;;;;1.50;99.90;;;;;;5015916;28;20470;-76
2024/01/15 08:58:11;;;;;;;;;;;1.60;99.90;;;;;;5029823;28;19951;-76
2024/01/15 09:00:37;;;;;;;;;;;1.70;99.90;;;;;;5003742;28;19927;-75
2024/01/15 09:03:03;;;;;;;;;;;1.80;99.90;;;;;;5030485;28;19934;-76
2024/01/15 09:05:29;;;;;;;;;;;1.90;99.90;;;;;;5001005;28;20512;-76
2024/01/15 09:07:55;;;;;;;;;;;2.10;99.90;;;;;;5010611;28;19924;-76
2024/01/15 09:10:21;;;;;;;;;;;2.10;99.90;;;;;;5003118;28;19928;-77
2024/01/15 09:12:49;;;;;;;;;;;2.00;99.90;;;;;;5030261;28;19929;-79
2024/01/15 09:15:15;;;;;;;;;;;1.90;99.90;;;;;;5018249;28;19931;-78
2024/01/15 09:17:40;;;;;;;;;;;1.90;99.90;;;;;;5039062;28;19928;-79
2024/01/15 09:20:07;;;;;;;;;;;1.80;99.90;;;;;;5024991;28;20019;-78
2024/01/15 09:22:33;;;;;;;;;;;1.80;99.90;;;;;;5041795;28;19924;-78
2024/01/15 09:24:59;;;;;;;;;;;1.80;99.90;;;;;;5007697;28;19924;-78
2024/01/15 09:27:28;;;;;;;;;;;1.80;99.90;;;;;;5037655;28;20696;-78
2024/01/15 09:29:54;;;;;;;;;;;1.80;99.90;;;;;;5021679;28;20936;-78
2024/01/15 09:32:20;;;;;;;;;;;1.90;99.90;;;;;;5004933;28;19931;-78
2024/01/15 09:34:46;;;;;;;;;;;1.90;99.90;;;;;;5006390;28;19932;-78
2024/01/15 09:37:14;;;;;;;;;;;1.90;99.90;;;;;;5031892;28;20047;-77
2024/01/15 09:39:40;;;;;;;;;;;2.00;99.90;;;;;;5005328;28;19931;-77
2024/01/15 09:42:06;;;;;;;;;;;2.00;99.90;;;;;;5029794;28;19935;-78
2024/01/15 09:44:32;;;;;;;;;;;2.20;99.90;;;;;;5004341;28;19924;-77
2024/01/15 09:46:58;;;;;;;;;;;2.30;99.90;;;;;;5024175;28;20479;-78
2024/01/15 09:49:24;;;;;;;;;;;2.40;99.90;;;;;;5003606;28;19924;-77
2024/01/15 09:51:51;;;;;;;;;;;2.40;99.90;;;;;;5030354;28;19926;-80
2024/01/15 09:54:17;;;;;;;;;;;2.40;99.90;;;;;;5028186;28;20572;-80
2024/01/15 09:56:46;;;;;;;;;;;2.30;99.90;;;;;;5032203;28;19928;-79
2024/01/15 09:59:16;;;;;;;;;;;2.20;99.90;;;;;;5004959;28;19960;-79
2024/01/15 10:01:43;;;;;;;;;;;2.30;99.90;;;;;;5029008;28;19932;-79
2024/01/15 10:04:10;;;;;;;;;;;2.30;99.90;;;;;;4994444;28;20188;-79
2024/01/15 10:06:37;;;;;;;;;;;2.20;99.90;;;;;;5025142;28;19920;-80
2024/01/15 10:09:03;;;;;;;;;;;2.30;99.90;;;;;;5000319;28;20247;-79
2024/01/15 10:11:30;;;;;;;;;;;2.30;99.90;;;;;;5027621;28;20508;-79
2024/01/15 10:13:57;;;;;;;;;;;2.40;99.90;;;;;;4998230;28;19924;-79
2024/01/15 10:16:23;;;;;;;;;;;2.40;99.90;;;;;;5027492;28;19938;-79
2024/01/15 10:18:49;;;;;;;;;;;2.40;99.90;;;;;;5022689;28;19931;-79
2024/01/15 10:21:15;;;;;;;;;;;2.40;99.90;;;;;;5015259;28;20383;-78
2024/01/15 10:23:41;;;;;;;;;;;2.40;99.90;;;;;;5028248;28;19928;-77
2024/01/15 10:26:07;;;;;;;;;;;2.50;99.90;;;;;;4981891;28;19924;-77
2024/01/15 10:28:33;;;;;;;;;;;2.60;99.90;;;;;;5027307;28;19924;-77
2024/01/15 10:31:00;;;;;;;;;;;2.80;99.90;;;;;;5000867;28;19926;-79
2024/01/15 10:33:26;;;;;;;;;;;2.90;99.90;;;;;;5040008;28;19936;-80
2024/01/15 10:35:56;;;;;;;;;;;2.90;99.90;;;;;;5022993;28;19924;-82
2024/01/15 10:38:23;;;;;;;;;;;2.80;99.90;;;;;;5061955;28;21049;-81
2024/01/15 10:40:52;;;;;;;;;;;2.80;99.90;;;;;;4999699;28;19928;-82
2024/01/15 10:43:18;;;;;;;;;;;2.70;99.90;;;;;;5037546;28;20050;-82
2024/01/15 10:45:47;;;;;;;;;;;2.60;99.90;;;;;;5021044;28;20378;-81
2024/01/15 10:48:14;;;;;;;;;;;2.60;99.90;;;;;;5036823;28;19931;-82
2024/01/15 10:50:40;;;;;;;;;;;2.60;99.90;;;;;;5013229;28;20058;-82
2024/01/15 10:53:07;;;;;;;;;;;2.50;99.90;;;;;;5034857;28;19936;-81
2024/01/15 10:55:33;;;;;;;;;;;2.50;99.90;;;;;;4964354;28;20441;-81
2024/01/15 10:57:59;;;;;;;;;;;2.40;99.90;;;;;;5015103;28;19959;-80
2024/01/15 11:00:25;;;;;;;;;;;2.30;99.90;;;;;;5006232;28;19924;-82
2024/01/15 11:02:55;;;;;;;;;;;2.20;99.90;;;;;;5036877;28;19925;-80
2024/01/15 11:05:24;;;;;;;;;;;2.10;99.90;;;;;;5019020;28;19929;-80
2024/01/15 11:07:50;;;;;;;;;;;2.10;99.90;;;;;;5031737;28;20629;-80
2024/01/15 11:10:34;;;;;;;;;;;2.10;99.90;;;;;;5005653;28;20051;-81
2024/01/15 11:13:01;;;;;;;;;;;2.20;99.90;;;;;;5038464;28;20333;-82
2024/01/15 11:15:29;;;;;;;;;;;2.30;99.90;;;;;;5010128;28;19924;-82
2024/01/15 11:17:59;;;;;;;;;;;2.40;99.90;;;;;;5036824;28;19940;-81
2024/01/15 11:20:25;;;;;;;;;;;2.30;99.90;;;;;;5024658;28;19924;-80
2024/01/15 11:22:51;;;;;;;;;;;2.30;99.90;;;;;;5033801;28;19931;-82
2024/01/15 11:25:20;;;;;;;;;;;2.30;99.90;;;;;;5019710;28;20048;-80
2024/01/15 11:27:54;;;;;;;;;;;2.30;99.90;;;;;;5007525;28;19947;-78
2024/01/15 11:30:24;;;;;;;;;;;2.30;99.90;;;;;;4990596;28;20432;-81
2024/01/15 11:32:50;;;;;;;;;;;2.40;99.90;;;;;;5028198;28;19931;-80
2024/01/15 11:35:16;;;;;;;;;;;2.40;99.90;;;;;;5003728;28;19963;-78
2024/01/15 11:37:57;;;;;;;;;;;2.30;99.90;;;;;;5032472;28;19928;-76
2024/01/15 11:40:32;;;;;;;;;;;2.30;99.90;;;;;;5013170;28;19932;-78
2024/01/15 11:42:58;;;;;;;;;;;2.30;99.90;;;;;;5022883;28;19928;-79
2024/01/15 11:45:24;;;;;;;;;;;2.20;99.90;;;;;;5000366;28;19924;-81
2024/01/15 11:48:09;;;;;;;;;;;2.10;99.90;;;;;;5031739;28;20994;-81
2024/01/15 11:50:38;;;;;;;;;;;2.10;99.90;;;;;;5026599;28;19924;-81
2024/01/15 11:53:08;;;;;;;;;;;2.20;99.90;;;;;;5047045;28;19942;-80
2024/01/15 11:55:37;;;;;;;;;;;2.20;99.90;;;;;;5003320;28;19923;-81
2024/01/15 11:58:07;;;;;;;;;;;2.10;99.90;;;;;;5032862;28;19935;-80
2024/01/15 12:00:33;;;;;;;;;;;1.90;99.90;;;;;;5000529;28;19990;-80
2024/01/15 12:02:59;;;;;;;;;;;1.80;99.90;;;;;;5024495;28;19929;-80
2024/01/15 12:05:25;;;;;;;;;;;1.60;99.90;;;;;;4997942;28;20762;-79
2024/01/15 12:07:51;;;;;;;;;;;1.40;99.90;;;;;;5027224;28;19928;-77
2024/01/15 12:10:25;;;;;;;;;;;1.40;99.90;;;;;;5017944;28;21097;-79
2024/01/15 12:13:01;;;;;;;;;;;1.30;99.90;;;;;;5023656;28;20477;-79
2024/01/15 12:15:28;;;;;;;;;;;1.30;99.90;;;;;;4998017;28;20513;-79
2024/01/15 12:17:55;;;;;;;;;;;1.40;99.90;;;;;;5046208;28;19935;-79
2024/01/15 12:20:21;;;;;;;;;;;1.40;99.90;;;;;;5015513;28;19924;-79
2024/01/15 12:22:47;;;;;;;;;;;1.40;99.90;;;;;;5020143;28;20428;-79
2024/01/15 12:25:16;;;;;;;;;;;1.50;99.90;;;;;;4998208;28;19924;-78
2024/01/15 12:27:42;;;;;;;;;;;1.50;99.90;;;;;;5020291;28;20591;-79
2024/01/15 12:30:10;;;;;;;;;;;1.50;99.90;;;;;;5006025;28;20822;-78
2024/01/15 12:32:36;;;;;;;;;;;1.60;99.90;;;;;;5028397;28;19932;-80
2024/01/15 12:35:03;;;;;;;;;;;1.60;99.90;;;;;;5008755;28;19935;-80
2024/01/15 12:37:29;;;;;;;;;;;1.60;99.90;;;;;;5009827;28;19932;-81
2024/01/15 12:39:55;;;;;;;;;;;1.70;99.90;;;;;;5008959;28;20787;-80
2024/01/15 12:42:21;;;;;;;;;;;1.70;99.90;;;;;;5020634;28;19962;-82
2024/01/15 12:44:47;;;;;;;;;;;1.80;99.90;;;;;;5013753;28;19931;-79
2024/01/15 12:47:14;;;;;;;;;;;1.80;99.90;;;;;;5044317;28;20257;-78
2024/01/15 12:49:40;;;;;;;;;;;1.90;99.90;;;;;;5017435;28;19924;-79
2024/01/15 12:52:08;;;;;;;;;;;2.00;99.90;;;;;;5027106;28;20926;-78
2024/01/15 12:54:34;;;;;;;;;;;2.70;99.90;;;;;;5020220;28;20025;-76
2024/01/15 12:57:00;;;;;;;;;;;4.10;99.90;;;;;;5046835;28;19929;-77
2024/01/15 12:59:26;;;;;;;;;;;3.80;99.90;;;;;;5000731;28;19931;-75
2024/01/15 13:01:52;;;;;;;;;;;3.20;99.90;;;;;;5038707;28;19924;-76
2024/01/15 13:04:24;;;;;;;;;;;2.90;99.90;;;;;;5004255;28;19931;-77
2024/01/15 13:06:51;;;;;;;;;;;2.70;99.90;;;;;;5026619;28;19924;-75
2024/01/15 13:09:17;;;;;;;;;;;2.50;99.90;;;;;;5001392;28;19931;-77
2024/01/15 13:11:46;;;;;;;;;;;2.40;99.90;;;;;;5018626;28;20837;-75
2024/01/15 13:14:15;;;;;;;;;;;2.50;99.90;;;;;;5000795;28;19925;-75
2024/01/15 13:16:42;;;;;;;;;;;3.20;99.90;;;;;;5024005;28;19929;-76
2024/01/15 13:19:09;;;;;;;;;;;3.40;99.90;;;;;;5023420;28;19932;-79
2024/01/15 13:21:35;;;;;;;;;;;2.90;99.90;;;;;;5008041;28;20092;-78
2024/01/15 13:24:01;;;;;;;;;;;2.50;99.90;;;;;;4996739;28;20990;-80
2024/01/15 13:26:27;;;;;;;;;;;2.00;99.90;;;;;;5028412;28;19931;-77
2024/01/15 13:28:53;;;;;;;;;;;1.60;99.90;;;;;;5003486;28;20010;-77
2024/01/15 13:31:20;;;;;;;;;;;1.60;99.90;;;;;;5028056;28;19929;-77
2024/01/15 13:33:46;;;;;;;;;;;2.20;99.90;;;;;;5022301;28;19929;-74
2024/01/15 13:36:12;;;;;;;;;;;2.40;99.90;;;;;;4965750;28;19925;-76
2024/01/15 13:38:38;;;;;;;;;;;2.40;99.90;;;;;;4986818;28;19976;-76
2024/01/15 13:41:04;;;;;;;;;;;2.00;99.90;;;;;;5008417;28;20050;-76
2024/01/15 13:43:31;;;;;;;;;;;1.80;99.90;;;;;;5023394;28;20896;-76
2024/01/15 13:45:57;;;;;;;;;;;1.80;99.90;;;;;;5012637;28;19924;-74
2024/01/15 13:48:23;;;;;;;;;;;1.70;99.90;;;;;;5023676;28;19944;-74
2024/01/15 13:50:50;;;;;;;;;;;1.70;99.90;;;;;;4994306;28;19928;-76
2024/01/15 13:53:16;;;;;;;;;;;2.60;99.90;;;;;;5022729;28;19939;-74
2024/01/15 13:55:42;;;;;;;;;;;3.60;99.90;;;;;;4995571;28;19951;-74
2024/01/15 13:58:08;;;;;;;;;;;4.70;99.90;;;;;;5025038;28;20948;-74
2024/01/15 14:00:34;;;;;;;;;;;4.10;99.90;;;;;;5016998;28;19927;-74
2024/01/15 14:03:00;;;;;;;;;;;3.90;99.90;;;;;;5026047;28;20040;-75
2024/01/15 14:05:26;;;;;;;;;;;3.00;99.90;;;;;;5005691;28;19924;-74
2024/01/15 14:07:52;;;;;;;;;;;2.80;99.90;;;;;;5021745;28;19924;-74
2024/01/15 14:10:18;;;;;;;;;;;2.80;99.90;;;;;;4995419;28;19928;-73
2024/01/15 14:12:43;;;;;;;;;;;2.60;99.90;;;;;;5020798;28;19924;-74
2024/01/15 14:15:09;;;;;;;;;;;2.40;99.90;;;;;;4993690;28;19935;-73
2024/01/15 14:17:35;;;;;;;;;;;2.30;99.90;;;;;;5028539;28;19928;-77
2024/01/15 14:20:01;;;;;;;;;;;2.30;99.90;;;;;;4992896;28;19939;-76
2024/01/15 14:22:27;;;;;;;;;;;2.20;99.90;;;;;;5026761;28;19929;-76
2024/01/15 14:24:53;;;;;;;;;;;2.20;99.90;;;;;;4994687;28;19924;-75
2024/01/15 14:27:19;;;;;;;;;;;2.00;99.90;;;;;;5025898;28;19935;-75